sensor_id;sensor_type;location;lat;lon;timestamp;P1;durP1;ratioP1;P2;durP2;ratioP2
68484;SDS011;55472;50.060;21.960;2022-08-14T00:01:09;12.55;;;6.85;;
68484;SDS011;55472;50.060;21.960;2022-08-14T00:03:35;14.23;;;7.10;;
68484;SDS011;55472;50.060;21.960;2022-08-14T00:06:03;12.30;;;6.32;;
68484;SDS011;55472;50.060;21.960;2022-08-14T00:08:30;12.43;;;7.43;;
68484;SDS011;55472;50.060;21.960;2022-08-14T00:10:56;11.93;;;6.60;;
68484;SDS011;55472;50.060;21.960;2022-08-14T00:13:23;13.97;;;6.90;;
68484;SDS011;55472;50.060;21.960;2022-08-14T00:15:53;14.85;;;7.53;;
68484;SDS011;55472;50.060;21.960;2022-08-14T00:18:23;13.00;;;7.22;;
68484;SDS011;55472;50.060;21.960;2022-08-14T00:20:55;13.43;;;7.07;;
68484;SDS011;55472;50.060;21.960;2022-08-14T00:23:22;13.60;;;7.15;;
68484;SDS011;55472;50.060;21.960;2022-08-14T00:25:51;10.33;;;5.97;;
68484;SDS011;55472;50.060;21.960;2022-08-14T00:28:19;12.30;;;6.32;;
68484;SDS011;55472;50.060;21.960;2022-08-14T00:30:51;13.45;;;6.22;;
68484;SDS011;55472;50.060;21.960;2022-08-14T00:33:26;11.52;;;6.30;;
68484;SDS011;55472;50.060;21.960;2022-08-14T00:35:53;13.77;;;5.90;;
68484;SDS011;55472;50.060;21.960;2022-08-14T00:38:20;13.80;;;6.33;;
68484;SDS011;55472;50.060;21.960;2022-08-14T00:40:46;11.63;;;6.40;;
68484;SDS011;55472;50.060;21.960;2022-08-14T00:43:12;13.07;;;6.63;;
68484;SDS011;55472;50.060;21.960;2022-08-14T00:45:39;13.20;;;6.15;;
68484;SDS011;55472;50.060;21.960;2022-08-14T00:48:06;11.57;;;6.53;;
68484;SDS011;55472;50.060;21.960;2022-08-14T00:50:32;11.70;;;6.50;;
68484;SDS011;55472;50.060;21.960;2022-08-14T00:52:58;12.80;;;6.20;;
68484;SDS011;55472;50.060;21.960;2022-08-14T00:55:25;10.73;;;5.75;;
68484;SDS011;55472;50.060;21.960;2022-08-14T00:57:53;13.40;;;6.70;;
68484;SDS011;55472;50.060;21.960;2022-08-14T01:00:38;12.57;;;6.18;;
68484;SDS011;55472;50.060;21.960;2022-08-14T01:03:05;11.97;;;6.10;;
68484;SDS011;55472;50.060;21.960;2022-08-14T01:05:32;15.25;;;6.88;;
68484;SDS011;55472;50.060;21.960;2022-08-14T01:07:59;13.27;;;7.00;;
68484;SDS011;55472;50.060;21.960;2022-08-14T01:10:27;13.15;;;6.57;;
68484;SDS011;55472;50.060;21.960;2022-08-14T01:13:14;13.43;;;6.93;;
68484;SDS011;55472;50.060;21.960;2022-08-14T01:15:53;13.57;;;6.90;;
68484;SDS011;55472;50.060;21.960;2022-08-14T01:18:22;14.15;;;7.25;;
68484;SDS011;55472;50.060;21.960;2022-08-14T01:21:10;16.08;;;7.75;;
68484;SDS011;55472;50.060;21.960;2022-08-14T01:23:42;15.85;;;7.47;;
68484;SDS011;55472;50.060;21.960;2022-08-14T01:26:11;17.23;;;7.28;;
68484;SDS011;55472;50.060;21.960;2022-08-14T01:28:40;15.57;;;7.77;;
68484;SDS011;55472;50.060;21.960;2022-08-14T01:31:08;14.43;;;6.95;;
68484;SDS011;55472;50.060;21.960;2022-08-14T01:33:40;15.95;;;7.47;;
68484;SDS011;55472;50.060;21.960;2022-08-14T01:36:11;14.13;;;6.82;;
68484;SDS011;55472;50.060;21.960;2022-08-14T01:38:40;13.65;;;6.63;;
68484;SDS011;55472;50.060;21.960;2022-08-14T01:41:14;13.33;;;6.70;;
68484;SDS011;55472;50.060;21.960;2022-08-14T01:43:51;16.08;;;7.00;;
68484;SDS011;55472;50.060;21.960;2022-08-14T01:46:28;12.32;;;6.13;;
68484;SDS011;55472;50.060;21.960;2022-08-14T01:48:57;13.43;;;6.60;;
68484;SDS011;55472;50.060;21.960;2022-08-14T01:51:24;16.17;;;6.82;;
68484;SDS011;55472;50.060;21.960;2022-08-14T01:54:35;12.60;;;6.07;;
68484;SDS011;55472;50.060;21.960;2022-08-14T01:56:51;12.55;;;6.65;;
68484;SDS011;55472;50.060;21.960;2022-08-14T02:01:53;15.10;;;6.78;;
68484;SDS011;55472;50.060;21.960;2022-08-14T02:04:21;14.43;;;7.65;;
68484;SDS011;55472;50.060;21.960;2022-08-14T02:06:50;14.80;;;8.07;;
68484;SDS011;55472;50.060;21.960;2022-08-14T02:09:17;15.35;;;7.25;;
68484;SDS011;55472;50.060;21.960;2022-08-14T02:11:45;18.50;;;7.78;;
68484;SDS011;55472;50.060;21.960;2022-08-14T02:14:12;16.23;;;7.85;;
68484;SDS011;55472;50.060;21.960;2022-08-14T02:16:43;15.18;;;7.68;;
68484;SDS011;55472;50.060;21.960;2022-08-14T02:19:16;17.60;;;8.13;;
68484;SDS011;55472;50.060;21.960;2022-08-14T02:21:46;17.05;;;8.63;;
68484;SDS011;55472;50.060;21.960;2022-08-14T02:24:16;17.10;;;7.97;;
68484;SDS011;55472;50.060;21.960;2022-08-14T02:26:47;19.27;;;8.00;;
68484;SDS011;55472;50.060;21.960;2022-08-14T02:29:17;15.45;;;7.88;;
68484;SDS011;55472;50.060;21.960;2022-08-14T02:31:50;15.77;;;7.77;;
68484;SDS011;55472;50.060;21.960;2022-08-14T02:34:20;16.27;;;8.05;;
68484;SDS011;55472;50.060;21.960;2022-08-14T02:36:54;14.05;;;7.57;;
68484;SDS011;55472;50.060;21.960;2022-08-14T02:39:26;16.60;;;8.27;;
68484;SDS011;55472;50.060;21.960;2022-08-14T02:41:54;18.05;;;9.18;;
68484;SDS011;55472;50.060;21.960;2022-08-14T02:44:22;18.80;;;8.47;;
68484;SDS011;55472;50.060;21.960;2022-08-14T02:46:48;16.10;;;8.38;;
68484;SDS011;55472;50.060;21.960;2022-08-14T02:49:17;17.20;;;9.27;;
68484;SDS011;55472;50.060;21.960;2022-08-14T02:51:51;17.67;;;8.43;;
68484;SDS011;55472;50.060;21.960;2022-08-14T02:54:18;17.90;;;8.10;;
68484;SDS011;55472;50.060;21.960;2022-08-14T02:56:45;18.97;;;8.50;;
68484;SDS011;55472;50.060;21.960;2022-08-14T02:59:11;17.85;;;8.50;;
68484;SDS011;55472;50.060;21.960;2022-08-14T03:01:41;15.05;;;7.68;;
68484;SDS011;55472;50.060;21.960;2022-08-14T03:04:07;16.85;;;8.80;;
68484;SDS011;55472;50.060;21.960;2022-08-14T03:06:35;18.57;;;8.40;;
68484;SDS011;55472;50.060;21.960;2022-08-14T03:09:03;20.55;;;9.77;;
68484;SDS011;55472;50.060;21.960;2022-08-14T03:11:29;20.60;;;8.93;;
68484;SDS011;55472;50.060;21.960;2022-08-14T03:13:56;21.75;;;9.48;;
68484;SDS011;55472;50.060;21.960;2022-08-14T03:16:24;21.58;;;9.70;;
68484;SDS011;55472;50.060;21.960;2022-08-14T03:18:52;18.90;;;9.27;;
68484;SDS011;55472;50.060;21.960;2022-08-14T03:21:22;22.63;;;10.18;;
68484;SDS011;55472;50.060;21.960;2022-08-14T03:23:50;19.83;;;9.30;;
68484;SDS011;55472;50.060;21.960;2022-08-14T03:26:34;18.40;;;8.60;;
68484;SDS011;55472;50.060;21.960;2022-08-14T03:29:01;18.98;;;9.07;;
68484;SDS011;55472;50.060;21.960;2022-08-14T03:31:28;18.90;;;9.30;;
68484;SDS011;55472;50.060;21.960;2022-08-14T03:33:54;17.83;;;8.82;;
68484;SDS011;55472;50.060;21.960;2022-08-14T03:36:21;17.55;;;8.80;;
68484;SDS011;55472;50.060;21.960;2022-08-14T03:38:48;17.70;;;9.10;;
68484;SDS011;55472;50.060;21.960;2022-08-14T03:41:19;17.70;;;8.98;;
68484;SDS011;55472;50.060;21.960;2022-08-14T03:43:53;15.53;;;7.87;;
68484;SDS011;55472;50.060;21.960;2022-08-14T03:46:24;16.88;;;8.85;;
68484;SDS011;55472;50.060;21.960;2022-08-14T03:48:52;15.07;;;8.40;;
68484;SDS011;55472;50.060;21.960;2022-08-14T03:51:19;17.33;;;8.88;;
68484;SDS011;55472;50.060;21.960;2022-08-14T03:53:46;15.85;;;8.00;;
68484;SDS011;55472;50.060;21.960;2022-08-14T03:56:15;16.60;;;8.40;;
68484;SDS011;55472;50.060;21.960;2022-08-14T03:58:43;15.57;;;8.18;;
68484;SDS011;55472;50.060;21.960;2022-08-14T04:01:12;18.20;;;9.30;;
68484;SDS011;55472;50.060;21.960;2022-08-14T04:03:40;18.85;;;8.52;;
68484;SDS011;55472;50.060;21.960;2022-08-14T04:06:06;16.95;;;8.50;;
68484;SDS011;55472;50.060;21.960;2022-08-14T04:08:39;17.27;;;8.43;;
68484;SDS011;55472;50.060;21.960;2022-08-14T04:11:06;16.52;;;8.23;;
68484;SDS011;55472;50.060;21.960;2022-08-14T04:13:33;15.20;;;7.97;;
68484;SDS011;55472;50.060;21.960;2022-08-14T04:16:06;16.92;;;7.72;;
68484;SDS011;55472;50.060;21.960;2022-08-14T04:18:37;14.57;;;8.10;;
68484;SDS011;55472;50.060;21.960;2022-08-14T04:21:09;16.67;;;8.17;;
68484;SDS011;55472;50.060;21.960;2022-08-14T04:23:37;18.00;;;9.18;;
68484;SDS011;55472;50.060;21.960;2022-08-14T04:26:04;17.58;;;8.30;;
68484;SDS011;55472;50.060;21.960;2022-08-14T04:28:36;15.30;;;7.70;;
68484;SDS011;55472;50.060;21.960;2022-08-14T04:31:03;14.32;;;7.35;;
68484;SDS011;55472;50.060;21.960;2022-08-14T04:33:31;15.33;;;7.00;;
68484;SDS011;55472;50.060;21.960;2022-08-14T04:35:58;9.88;;;5.47;;
68484;SDS011;55472;50.060;21.960;2022-08-14T04:38:24;10.48;;;5.32;;
68484;SDS011;55472;50.060;21.960;2022-08-14T04:41:09;12.23;;;6.32;;
68484;SDS011;55472;50.060;21.960;2022-08-14T04:43:54;16.17;;;8.18;;
68484;SDS011;55472;50.060;21.960;2022-08-14T04:46:20;14.67;;;8.13;;
68484;SDS011;55472;50.060;21.960;2022-08-14T04:48:48;15.65;;;8.32;;
68484;SDS011;55472;50.060;21.960;2022-08-14T04:51:15;11.60;;;6.47;;
68484;SDS011;55472;50.060;21.960;2022-08-14T04:53:46;15.98;;;8.38;;
68484;SDS011;55472;50.060;21.960;2022-08-14T04:56:15;17.38;;;8.10;;
68484;SDS011;55472;50.060;21.960;2022-08-14T04:58:47;17.90;;;9.03;;
68484;SDS011;55472;50.060;21.960;2022-08-14T05:01:15;17.70;;;8.43;;
68484;SDS011;55472;50.060;21.960;2022-08-14T05:03:42;14.38;;;6.45;;
68484;SDS011;55472;50.060;21.960;2022-08-14T05:06:09;17.92;;;8.73;;
68484;SDS011;55472;50.060;21.960;2022-08-14T05:08:36;16.92;;;8.48;;
68484;SDS011;55472;50.060;21.960;2022-08-14T05:11:03;19.40;;;9.50;;
68484;SDS011;55472;50.060;21.960;2022-08-14T05:13:32;16.55;;;7.75;;
68484;SDS011;55472;50.060;21.960;2022-08-14T05:16:01;20.20;;;9.50;;
68484;SDS011;55472;50.060;21.960;2022-08-14T05:18:30;21.00;;;9.38;;
68484;SDS011;55472;50.060;21.960;2022-08-14T05:21:00;14.90;;;7.03;;
68484;SDS011;55472;50.060;21.960;2022-08-14T05:23:29;23.00;;;9.50;;
68484;SDS011;55472;50.060;21.960;2022-08-14T05:25:58;20.63;;;10.13;;
68484;SDS011;55472;50.060;21.960;2022-08-14T05:28:27;20.60;;;9.70;;
68484;SDS011;55472;50.060;21.960;2022-08-14T05:31:04;19.42;;;9.45;;
68484;SDS011;55472;50.060;21.960;2022-08-14T05:33:32;20.33;;;9.18;;
68484;SDS011;55472;50.060;21.960;2022-08-14T05:36:00;19.30;;;9.17;;
68484;SDS011;55472;50.060;21.960;2022-08-14T05:38:34;13.43;;;6.70;;
68484;SDS011;55472;50.060;21.960;2022-08-14T05:41:07;17.33;;;8.85;;
68484;SDS011;55472;50.060;21.960;2022-08-14T05:43:37;18.40;;;9.05;;
68484;SDS011;55472;50.060;21.960;2022-08-14T05:46:05;14.63;;;7.45;;
68484;SDS011;55472;50.060;21.960;2022-08-14T05:48:33;20.27;;;9.73;;
68484;SDS011;55472;50.060;21.960;2022-08-14T05:50:59;18.98;;;9.80;;
68484;SDS011;55472;50.060;21.960;2022-08-14T05:53:25;19.40;;;9.23;;
68484;SDS011;55472;50.060;21.960;2022-08-14T05:55:52;17.88;;;9.25;;
68484;SDS011;55472;50.060;21.960;2022-08-14T05:58:19;17.60;;;8.95;;
68484;SDS011;55472;50.060;21.960;2022-08-14T06:00:46;16.10;;;8.40;;
68484;SDS011;55472;50.060;21.960;2022-08-14T06:03:15;18.50;;;8.85;;
68484;SDS011;55472;50.060;21.960;2022-08-14T06:05:43;17.15;;;9.23;;
68484;SDS011;55472;50.060;21.960;2022-08-14T06:08:17;17.42;;;9.00;;
68484;SDS011;55472;50.060;21.960;2022-08-14T06:10:53;15.50;;;7.38;;
68484;SDS011;55472;50.060;21.960;2022-08-14T06:13:21;17.47;;;9.00;;
68484;SDS011;55472;50.060;21.960;2022-08-14T06:15:48;17.48;;;9.00;;
68484;SDS011;55472;50.060;21.960;2022-08-14T06:18:15;19.13;;;8.93;;
68484;SDS011;55472;50.060;21.960;2022-08-14T06:20:42;17.92;;;8.27;;
68484;SDS011;55472;50.060;21.960;2022-08-14T06:23:08;17.00;;;8.93;;
68484;SDS011;55472;50.060;21.960;2022-08-14T06:25:35;20.20;;;10.23;;
68484;SDS011;55472;50.060;21.960;2022-08-14T06:28:01;17.42;;;9.23;;
68484;SDS011;55472;50.060;21.960;2022-08-14T06:30:28;18.15;;;9.35;;
68484;SDS011;55472;50.060;21.960;2022-08-14T06:32:57;18.25;;;9.50;;
68484;SDS011;55472;50.060;21.960;2022-08-14T06:35:23;19.80;;;10.98;;
68484;SDS011;55472;50.060;21.960;2022-08-14T06:37:50;20.13;;;10.20;;
68484;SDS011;55472;50.060;21.960;2022-08-14T06:40:19;18.50;;;9.57;;
68484;SDS011;55472;50.060;21.960;2022-08-14T06:42:47;17.30;;;8.93;;
68484;SDS011;55472;50.060;21.960;2022-08-14T06:45:14;19.65;;;8.88;;
68484;SDS011;55472;50.060;21.960;2022-08-14T06:47:41;18.05;;;9.55;;
68484;SDS011;55472;50.060;21.960;2022-08-14T06:50:10;16.83;;;9.10;;
68484;SDS011;55472;50.060;21.960;2022-08-14T06:52:40;17.33;;;8.93;;
68484;SDS011;55472;50.060;21.960;2022-08-14T06:55:07;16.02;;;9.30;;
68484;SDS011;55472;50.060;21.960;2022-08-14T06:57:36;15.95;;;8.75;;
68484;SDS011;55472;50.060;21.960;2022-08-14T07:00:06;17.65;;;9.23;;
68484;SDS011;55472;50.060;21.960;2022-08-14T07:02:34;18.50;;;9.03;;
68484;SDS011;55472;50.060;21.960;2022-08-14T07:05:19;12.95;;;7.05;;
68484;SDS011;55472;50.060;21.960;2022-08-14T07:08:04;17.40;;;9.20;;
68484;SDS011;55472;50.060;21.960;2022-08-14T07:10:31;31.85;;;17.92;;
68484;SDS011;55472;50.060;21.960;2022-08-14T07:12:57;18.30;;;10.73;;
68484;SDS011;55472;50.060;21.960;2022-08-14T07:15:23;14.20;;;7.23;;
68484;SDS011;55472;50.060;21.960;2022-08-14T07:17:49;17.58;;;9.40;;
68484;SDS011;55472;50.060;21.960;2022-08-14T07:20:15;15.25;;;7.95;;
68484;SDS011;55472;50.060;21.960;2022-08-14T07:22:47;17.42;;;9.88;;
68484;SDS011;55472;50.060;21.960;2022-08-14T07:25:13;16.25;;;8.68;;
68484;SDS011;55472;50.060;21.960;2022-08-14T07:27:40;21.93;;;12.83;;
68484;SDS011;55472;50.060;21.960;2022-08-14T07:30:07;23.75;;;12.75;;
68484;SDS011;55472;50.060;21.960;2022-08-14T07:32:35;17.83;;;9.65;;
68484;SDS011;55472;50.060;21.960;2022-08-14T07:35:00;18.10;;;10.23;;
68484;SDS011;55472;50.060;21.960;2022-08-14T07:37:26;19.53;;;11.43;;
68484;SDS011;55472;50.060;21.960;2022-08-14T07:39:52;21.35;;;11.93;;
68484;SDS011;55472;50.060;21.960;2022-08-14T07:42:18;21.77;;;12.98;;
68484;SDS011;55472;50.060;21.960;2022-08-14T07:44:44;27.25;;;15.27;;
68484;SDS011;55472;50.060;21.960;2022-08-14T07:47:10;26.33;;;14.13;;
68484;SDS011;55472;50.060;21.960;2022-08-14T07:49:36;22.88;;;12.50;;
68484;SDS011;55472;50.060;21.960;2022-08-14T07:52:03;21.88;;;12.32;;
68484;SDS011;55472;50.060;21.960;2022-08-14T07:54:29;21.10;;;12.07;;
68484;SDS011;55472;50.060;21.960;2022-08-14T07:56:56;24.63;;;13.05;;
68484;SDS011;55472;50.060;21.960;2022-08-14T07:59:23;21.90;;;12.83;;
68484;SDS011;55472;50.060;21.960;2022-08-14T08:01:49;24.90;;;14.10;;
68484;SDS011;55472;50.060;21.960;2022-08-14T08:04:21;22.17;;;12.40;;
68484;SDS011;55472;50.060;21.960;2022-08-14T08:06:49;20.30;;;11.98;;
68484;SDS011;55472;50.060;21.960;2022-08-14T08:09:16;22.13;;;12.38;;
68484;SDS011;55472;50.060;21.960;2022-08-14T08:11:49;22.87;;;11.90;;
68484;SDS011;55472;50.060;21.960;2022-08-14T08:14:17;18.70;;;11.30;;
68484;SDS011;55472;50.060;21.960;2022-08-14T08:16:45;16.88;;;9.88;;
68484;SDS011;55472;50.060;21.960;2022-08-14T08:19:13;17.95;;;11.35;;
68484;SDS011;55472;50.060;21.960;2022-08-14T08:21:43;23.15;;;13.02;;
68484;SDS011;55472;50.060;21.960;2022-08-14T08:24:10;26.83;;;15.20;;
68484;SDS011;55472;50.060;21.960;2022-08-14T08:26:36;19.80;;;10.60;;
68484;SDS011;55472;50.060;21.960;2022-08-14T08:29:02;19.52;;;10.43;;
68484;SDS011;55472;50.060;21.960;2022-08-14T08:31:28;20.05;;;11.07;;
68484;SDS011;55472;50.060;21.960;2022-08-14T08:33:55;17.07;;;10.20;;
68484;SDS011;55472;50.060;21.960;2022-08-14T08:36:22;20.55;;;10.48;;
68484;SDS011;55472;50.060;21.960;2022-08-14T08:38:48;18.65;;;10.50;;
68484;SDS011;55472;50.060;21.960;2022-08-14T08:41:14;18.40;;;10.00;;
68484;SDS011;55472;50.060;21.960;2022-08-14T08:43:43;17.63;;;9.82;;
68484;SDS011;55472;50.060;21.960;2022-08-14T08:46:11;16.47;;;9.20;;
68484;SDS011;55472;50.060;21.960;2022-08-14T08:48:46;15.63;;;8.18;;
68484;SDS011;55472;50.060;21.960;2022-08-14T08:53:59;14.55;;;8.48;;
68484;SDS011;55472;50.060;21.960;2022-08-14T08:56:37;18.23;;;10.48;;
68484;SDS011;55472;50.060;21.960;2022-08-14T09:01:56;16.40;;;8.70;;
68484;SDS011;55472;50.060;21.960;2022-08-14T09:04:27;16.67;;;8.88;;
68484;SDS011;55472;50.060;21.960;2022-08-14T09:07:03;14.35;;;8.00;;
68484;SDS011;55472;50.060;21.960;2022-08-14T09:09:31;15.98;;;8.57;;
68484;SDS011;55472;50.060;21.960;2022-08-14T09:11:58;14.80;;;7.93;;
68484;SDS011;55472;50.060;21.960;2022-08-14T09:14:29;13.85;;;8.27;;
68484;SDS011;55472;50.060;21.960;2022-08-14T09:16:57;14.90;;;8.90;;
68484;SDS011;55472;50.060;21.960;2022-08-14T09:19:24;16.85;;;9.50;;
68484;SDS011;55472;50.060;21.960;2022-08-14T09:21:51;16.25;;;9.10;;
68484;SDS011;55472;50.060;21.960;2022-08-14T09:24:19;19.43;;;10.77;;
68484;SDS011;55472;50.060;21.960;2022-08-14T09:26:45;21.27;;;11.48;;
68484;SDS011;55472;50.060;21.960;2022-08-14T09:29:12;21.67;;;11.23;;
68484;SDS011;55472;50.060;21.960;2022-08-14T09:31:44;25.23;;;12.35;;
68484;SDS011;55472;50.060;21.960;2022-08-14T09:40:04;21.70;;;11.32;;
68484;SDS011;55472;50.060;21.960;2022-08-14T09:45:46;20.40;;;9.65;;
68484;SDS011;55472;50.060;21.960;2022-08-14T09:48:14;20.15;;;10.40;;
68484;SDS011;55472;50.060;21.960;2022-08-14T09:50:47;21.87;;;10.57;;
68484;SDS011;55472;50.060;21.960;2022-08-14T09:56:09;23.58;;;12.35;;
68484;SDS011;55472;50.060;21.960;2022-08-14T10:01:13;22.67;;;11.45;;
68484;SDS011;55472;50.060;21.960;2022-08-14T10:03:51;24.60;;;11.33;;
68484;SDS011;55472;50.060;21.960;2022-08-14T10:06:24;28.30;;;12.75;;
68484;SDS011;55472;50.060;21.960;2022-08-14T10:08:53;24.80;;;12.07;;
68484;SDS011;55472;50.060;21.960;2022-08-14T10:11:30;26.77;;;13.50;;
68484;SDS011;55472;50.060;21.960;2022-08-14T10:14:11;25.30;;;12.27;;
68484;SDS011;55472;50.060;21.960;2022-08-14T10:16:45;27.10;;;13.47;;
68484;SDS011;55472;50.060;21.960;2022-08-14T10:19:17;28.02;;;14.45;;
68484;SDS011;55472;50.060;21.960;2022-08-14T10:21:44;30.20;;;12.85;;
68484;SDS011;55472;50.060;21.960;2022-08-14T10:24:27;26.63;;;13.55;;
68484;SDS011;55472;50.060;21.960;2022-08-14T10:27:14;27.30;;;13.57;;
68484;SDS011;55472;50.060;21.960;2022-08-14T10:29:57;28.70;;;13.87;;
68484;SDS011;55472;50.060;21.960;2022-08-14T10:32:24;27.50;;;13.52;;
68484;SDS011;55472;50.060;21.960;2022-08-14T10:35:01;27.30;;;12.95;;
68484;SDS011;55472;50.060;21.960;2022-08-14T10:37:37;25.15;;;13.27;;
68484;SDS011;55472;50.060;21.960;2022-08-14T10:40:06;28.85;;;13.15;;
68484;SDS011;55472;50.060;21.960;2022-08-14T10:42:34;26.13;;;13.17;;
68484;SDS011;55472;50.060;21.960;2022-08-14T10:45:15;23.75;;;12.73;;
68484;SDS011;55472;50.060;21.960;2022-08-14T10:47:47;22.02;;;12.02;;
68484;SDS011;55472;50.060;21.960;2022-08-14T10:50:14;20.38;;;11.35;;
68484;SDS011;55472;50.060;21.960;2022-08-14T10:52:41;22.23;;;11.85;;
68484;SDS011;55472;50.060;21.960;2022-08-14T10:55:13;18.47;;;10.97;;
68484;SDS011;55472;50.060;21.960;2022-08-14T10:57:51;19.20;;;10.93;;
68484;SDS011;55472;50.060;21.960;2022-08-14T11:00:20;20.42;;;10.88;;
68484;SDS011;55472;50.060;21.960;2022-08-14T11:02:56;17.83;;;11.15;;
68484;SDS011;55472;50.060;21.960;2022-08-14T11:05:25;22.08;;;11.98;;
68484;SDS011;55472;50.060;21.960;2022-08-14T11:08:12;23.13;;;11.50;;
68484;SDS011;55472;50.060;21.960;2022-08-14T11:10:54;19.70;;;11.75;;
68484;SDS011;55472;50.060;21.960;2022-08-14T11:13:23;23.30;;;11.48;;
68484;SDS011;55472;50.060;21.960;2022-08-14T11:15:52;20.92;;;11.63;;
68484;SDS011;55472;50.060;21.960;2022-08-14T11:18:20;17.77;;;10.40;;
68484;SDS011;55472;50.060;21.960;2022-08-14T11:20:48;21.23;;;11.43;;
68484;SDS011;55472;50.060;21.960;2022-08-14T11:23:20;18.45;;;11.02;;
68484;SDS011;55472;50.060;21.960;2022-08-14T11:26:07;19.25;;;11.77;;
68484;SDS011;55472;50.060;21.960;2022-08-14T11:28:36;20.00;;;10.98;;
68484;SDS011;55472;50.060;21.960;2022-08-14T11:31:10;21.42;;;10.93;;
68484;SDS011;55472;50.060;21.960;2022-08-14T11:33:38;19.43;;;10.00;;
68484;SDS011;55472;50.060;21.960;2022-08-14T11:36:06;17.73;;;9.65;;
68484;SDS011;55472;50.060;21.960;2022-08-14T11:38:44;16.48;;;9.60;;
68484;SDS011;55472;50.060;21.960;2022-08-14T11:41:11;16.42;;;10.07;;
68484;SDS011;55472;50.060;21.960;2022-08-14T11:43:44;16.42;;;9.48;;
68484;SDS011;55472;50.060;21.960;2022-08-14T11:46:13;16.77;;;9.07;;
68484;SDS011;55472;50.060;21.960;2022-08-14T11:51:22;15.98;;;9.95;;
68484;SDS011;55472;50.060;21.960;2022-08-14T11:56:32;15.55;;;9.18;;
68484;SDS011;55472;50.060;21.960;2022-08-14T11:59:05;20.20;;;9.07;;
68484;SDS011;55472;50.060;21.960;2022-08-14T12:01:39;14.77;;;8.82;;
68484;SDS011;55472;50.060;21.960;2022-08-14T12:04:15;15.18;;;9.15;;
68484;SDS011;55472;50.060;21.960;2022-08-14T12:06:48;14.02;;;8.80;;
68484;SDS011;55472;50.060;21.960;2022-08-14T12:09:55;16.90;;;9.40;;
68484;SDS011;55472;50.060;21.960;2022-08-14T12:12:20;15.07;;;8.73;;
68484;SDS011;55472;50.060;21.960;2022-08-14T12:14:59;13.82;;;8.85;;
68484;SDS011;55472;50.060;21.960;2022-08-14T12:17:26;13.48;;;8.20;;
68484;SDS011;55472;50.060;21.960;2022-08-14T12:22:39;13.45;;;8.57;;
68484;SDS011;55472;50.060;21.960;2022-08-14T12:25:08;13.27;;;8.17;;
68484;SDS011;55472;50.060;21.960;2022-08-14T12:27:47;13.45;;;8.27;;
68484;SDS011;55472;50.060;21.960;2022-08-14T12:32:57;13.52;;;8.27;;
68484;SDS011;55472;50.060;21.960;2022-08-14T12:35:37;13.25;;;8.15;;
68484;SDS011;55472;50.060;21.960;2022-08-14T12:38:04;14.70;;;8.03;;
68484;SDS011;55472;50.060;21.960;2022-08-14T12:40:31;12.18;;;8.15;;
68484;SDS011;55472;50.060;21.960;2022-08-14T12:43:00;13.10;;;7.88;;
68484;SDS011;55472;50.060;21.960;2022-08-14T12:45:30;17.17;;;11.02;;
68484;SDS011;55472;50.060;21.960;2022-08-14T12:48:02;16.30;;;8.45;;
68484;SDS011;55472;50.060;21.960;2022-08-14T12:50:36;12.43;;;8.03;;
68484;SDS011;55472;50.060;21.960;2022-08-14T12:53:07;14.85;;;7.85;;
68484;SDS011;55472;50.060;21.960;2022-08-14T12:55:37;14.60;;;7.90;;
68484;SDS011;55472;50.060;21.960;2022-08-14T12:58:05;11.82;;;8.00;;
68484;SDS011;55472;50.060;21.960;2022-08-14T13:00:34;14.52;;;7.88;;
68484;SDS011;55472;50.060;21.960;2022-08-14T13:03:03;13.17;;;8.73;;
68484;SDS011;55472;50.060;21.960;2022-08-14T13:05:31;14.63;;;8.90;;
68484;SDS011;55472;50.060;21.960;2022-08-14T13:08:02;12.05;;;7.75;;
68484;SDS011;55472;50.060;21.960;2022-08-14T13:10:33;11.75;;;8.23;;
68484;SDS011;55472;50.060;21.960;2022-08-14T13:13:00;14.32;;;8.48;;
68484;SDS011;55472;50.060;21.960;2022-08-14T13:15:26;12.60;;;8.10;;
68484;SDS011;55472;50.060;21.960;2022-08-14T13:17:53;14.30;;;7.78;;
68484;SDS011;55472;50.060;21.960;2022-08-14T13:20:23;12.25;;;7.45;;
68484;SDS011;55472;50.060;21.960;2022-08-14T13:22:50;14.43;;;7.95;;
68484;SDS011;55472;50.060;21.960;2022-08-14T13:25:20;14.43;;;8.07;;
68484;SDS011;55472;50.060;21.960;2022-08-14T13:27:49;12.47;;;7.47;;
68484;SDS011;55472;50.060;21.960;2022-08-14T13:30:25;11.30;;;7.70;;
68484;SDS011;55472;50.060;21.960;2022-08-14T13:32:52;14.32;;;8.10;;
68484;SDS011;55472;50.060;21.960;2022-08-14T13:35:20;12.27;;;7.57;;
68484;SDS011;55472;50.060;21.960;2022-08-14T13:37:46;16.27;;;9.02;;
68484;SDS011;55472;50.060;21.960;2022-08-14T13:40:15;12.50;;;7.77;;
68484;SDS011;55472;50.060;21.960;2022-08-14T13:42:45;15.43;;;9.30;;
68484;SDS011;55472;50.060;21.960;2022-08-14T13:45:15;12.65;;;7.85;;
68484;SDS011;55472;50.060;21.960;2022-08-14T13:47:42;17.85;;;8.48;;
68484;SDS011;55472;50.060;21.960;2022-08-14T13:50:09;14.95;;;8.32;;
68484;SDS011;55472;50.060;21.960;2022-08-14T13:52:45;14.73;;;8.43;;
68484;SDS011;55472;50.060;21.960;2022-08-14T13:55:26;14.07;;;8.52;;
68484;SDS011;55472;50.060;21.960;2022-08-14T13:57:59;14.32;;;8.90;;
68484;SDS011;55472;50.060;21.960;2022-08-14T14:00:26;13.30;;;8.45;;
68484;SDS011;55472;50.060;21.960;2022-08-14T14:02:53;13.82;;;9.23;;
68484;SDS011;55472;50.060;21.960;2022-08-14T14:05:20;13.47;;;9.00;;
68484;SDS011;55472;50.060;21.960;2022-08-14T14:07:48;13.85;;;8.93;;
68484;SDS011;55472;50.060;21.960;2022-08-14T14:10:19;15.55;;;9.05;;
68484;SDS011;55472;50.060;21.960;2022-08-14T14:12:47;15.15;;;8.52;;
68484;SDS011;55472;50.060;21.960;2022-08-14T14:15:18;17.52;;;8.90;;
68484;SDS011;55472;50.060;21.960;2022-08-14T14:17:46;15.27;;;8.60;;
68484;SDS011;55472;50.060;21.960;2022-08-14T14:20:13;14.27;;;8.35;;
68484;SDS011;55472;50.060;21.960;2022-08-14T14:22:44;12.70;;;8.23;;
68484;SDS011;55472;50.060;21.960;2022-08-14T14:25:12;13.82;;;8.07;;
68484;SDS011;55472;50.060;21.960;2022-08-14T14:27:42;16.23;;;8.57;;
68484;SDS011;55472;50.060;21.960;2022-08-14T14:30:10;13.83;;;8.90;;
68484;SDS011;55472;50.060;21.960;2022-08-14T14:32:38;15.63;;;8.50;;
68484;SDS011;55472;50.060;21.960;2022-08-14T14:35:08;13.38;;;8.43;;
68484;SDS011;55472;50.060;21.960;2022-08-14T14:37:40;13.23;;;9.10;;
68484;SDS011;55472;50.060;21.960;2022-08-14T14:40:09;16.45;;;8.57;;
68484;SDS011;55472;50.060;21.960;2022-08-14T14:42:44;15.47;;;8.40;;
68484;SDS011;55472;50.060;21.960;2022-08-14T14:45:17;15.57;;;9.18;;
68484;SDS011;55472;50.060;21.960;2022-08-14T14:47:46;14.35;;;8.70;;
68484;SDS011;55472;50.060;21.960;2022-08-14T14:50:15;14.77;;;9.07;;
68484;SDS011;55472;50.060;21.960;2022-08-14T14:52:44;14.38;;;8.40;;
68484;SDS011;55472;50.060;21.960;2022-08-14T14:55:11;14.77;;;8.03;;
68484;SDS011;55472;50.060;21.960;2022-08-14T14:57:39;20.77;;;8.80;;
68484;SDS011;55472;50.060;21.960;2022-08-14T15:00:09;13.90;;;9.05;;
68484;SDS011;55472;50.060;21.960;2022-08-14T15:02:46;12.98;;;8.90;;
68484;SDS011;55472;50.060;21.960;2022-08-14T15:05:16;15.75;;;8.77;;
68484;SDS011;55472;50.060;21.960;2022-08-14T15:07:44;13.53;;;8.50;;